createdAt,value
2022-09-22T00:00:55.383Z,8.20
2022-09-22T00:01:55.368Z,8.20
2022-09-22T00:02:55.283Z,7.40
2022-09-22T00:03:55.274Z,7.80
2022-09-22T00:04:55.265Z,8.00
2022-09-22T00:05:55.244Z,8.10
2022-09-22T00:06:55.245Z,8.20
2022-09-22T00:07:55.214Z,9.00
2022-09-22T00:08:55.219Z,8.20
2022-09-22T00:09:55.199Z,7.90
2022-09-22T00:10:55.185Z,8.90
2022-09-22T00:11:55.180Z,7.70
2022-09-22T00:12:55.157Z,7.60
2022-09-22T00:13:55.137Z,8.30
2022-09-22T00:14:55.126Z,7.40
2022-09-22T00:15:55.133Z,8.40
2022-09-22T00:16:55.116Z,8.20
2022-09-22T00:17:55.087Z,8.00
2022-09-22T00:18:56.037Z,8.50
2022-09-22T00:19:55.060Z,8.30
2022-09-22T00:20:55.058Z,8.40
2022-09-22T00:21:55.039Z,8.30
2022-09-22T00:22:55.025Z,8.10
2022-09-22T00:23:55.005Z,7.80
2022-09-22T00:24:54.999Z,8.30
2022-09-22T00:25:54.978Z,8.40
2022-09-22T00:26:54.978Z,9.50
2022-09-22T00:27:54.951Z,9.20
2022-09-22T00:28:54.948Z,8.60
2022-09-22T00:29:54.929Z,10.10
2022-09-22T00:30:54.919Z,8.80
2022-09-22T00:31:54.966Z,8.90
2022-09-22T00:32:54.889Z,9.00
2022-09-22T00:33:54.882Z,8.30
2022-09-22T00:34:54.861Z,8.80
2022-09-22T00:35:54.862Z,8.60
2022-09-22T00:36:54.850Z,8.40
2022-09-22T00:37:54.821Z,8.50
2022-09-22T00:38:54.811Z,8.60
2022-09-22T00:39:54.791Z,8.40
2022-09-22T00:40:54.792Z,8.30
2022-09-22T00:41:55.735Z,9.60
2022-09-22T00:42:54.761Z,9.00
2022-09-22T00:43:54.742Z,8.90
2022-09-22T00:44:54.733Z,9.00
2022-09-22T00:45:54.723Z,8.10
2022-09-22T00:46:54.772Z,9.10
2022-09-22T00:47:54.701Z,8.50
2022-09-22T00:48:54.686Z,8.30
2022-09-22T00:49:54.664Z,8.70
2022-09-22T00:50:54.654Z,7.30
2022-09-22T00:51:54.657Z,8.40
2022-09-22T00:52:54.635Z,9.30
2022-09-22T00:53:54.616Z,9.00
2022-09-22T00:54:54.603Z,8.60
2022-09-22T00:55:54.585Z,8.30
2022-09-22T00:56:54.585Z,8.90
2022-09-22T00:57:54.556Z,8.50
2022-09-22T00:58:54.547Z,7.80
2022-09-22T00:59:54.536Z,8.30
2022-09-22T01:00:54.593Z,8.70
2022-09-22T01:01:55.529Z,9.20
2022-09-22T01:02:54.497Z,9.00
2022-09-22T01:03:54.486Z,9.60
2022-09-22T01:04:54.466Z,8.20
2022-09-22T01:05:54.463Z,9.50
2022-09-22T01:06:54.497Z,9.30
2022-09-22T01:07:54.428Z,9.40
2022-09-22T01:08:54.418Z,9.10
2022-09-22T01:09:54.399Z,9.20
2022-09-22T01:10:54.390Z,9.70
2022-09-22T01:11:54.386Z,8.90
2022-09-22T01:12:54.369Z,8.60
2022-09-22T01:13:54.351Z,9.30
2022-09-22T01:14:54.341Z,8.60
2022-09-22T01:15:54.378Z,8.60
2022-09-22T01:16:54.320Z,8.70
2022-09-22T01:17:54.300Z,8.60
2022-09-22T01:18:54.283Z,8.60
2022-09-22T01:19:54.270Z,8.20
2022-09-22T01:20:54.260Z,8.30
2022-09-22T01:21:54.256Z,8.70
2022-09-22T01:22:54.231Z,7.80
2022-09-22T01:23:54.231Z,9.30
2022-09-22T01:24:54.202Z,8.30
2022-09-22T01:25:54.193Z,8.60
2022-09-22T01:26:54.193Z,8.60
2022-09-22T01:27:54.172Z,8.80
2022-09-22T01:28:54.152Z,9.40
2022-09-22T01:29:55.091Z,9.10
2022-09-22T01:32:03.341Z,9.90
2022-09-22T01:33:03.321Z,10.30
2022-09-22T01:34:03.402Z,10.50
2022-09-22T01:35:03.301Z,9.30
2022-09-22T01:36:03.278Z,9.70
2022-09-22T01:37:03.273Z,9.80
2022-09-22T01:38:03.254Z,9.40
2022-09-22T01:39:03.243Z,10.10
2022-09-22T01:40:03.272Z,8.80
2022-09-22T01:41:03.213Z,9.40
2022-09-22T01:42:03.204Z,8.80
2022-09-22T01:43:03.194Z,9.00
2022-09-22T01:44:03.174Z,10.20
2022-09-22T01:45:03.164Z,9.20
2022-09-22T01:46:04.150Z,9.60
2022-09-22T01:47:03.139Z,10.40
2022-09-22T01:48:03.114Z,9.80
2022-09-22T01:49:03.105Z,9.50
2022-09-22T01:50:03.097Z,8.70
2022-09-22T01:51:04.043Z,9.20
2022-09-22T01:52:03.066Z,9.30
2022-09-22T01:53:03.055Z,8.60
2022-09-22T01:54:03.036Z,9.60
2022-09-22T01:55:03.028Z,10.30
2022-09-22T01:56:03.018Z,9.60
2022-09-22T01:57:02.997Z,9.20
2022-09-22T01:58:02.977Z,9.40
2022-09-22T01:59:02.977Z,9.60
2022-09-22T02:00:02.957Z,9.60
2022-09-22T02:01:02.958Z,9.60
2022-09-22T02:02:03.037Z,9.10
2022-09-22T02:03:02.963Z,9.60
2022-09-22T02:04:02.898Z,8.70
2022-09-22T02:05:02.898Z,10.50
2022-09-22T02:06:02.878Z,9.50
2022-09-22T02:07:02.873Z,9.60
2022-09-22T02:08:02.853Z,10.40
2022-09-22T02:09:02.853Z,10.70
2022-09-22T02:10:02.824Z,9.90
2022-09-22T02:11:02.823Z,9.90
2022-09-22T02:12:02.796Z,10.20
2022-09-22T02:13:02.790Z,10.10
2022-09-22T02:14:02.768Z,11.30
2022-09-22T02:15:02.763Z,9.70
2022-09-22T02:16:02.795Z,10.00
2022-09-22T02:17:02.737Z,10.80
2022-09-22T02:18:02.719Z,10.20
2022-09-22T02:19:12.044Z,9.90
2022-09-22T02:20:03.700Z,10.10
2022-09-22T02:21:02.682Z,10.10
2022-09-22T02:22:02.663Z,10.00
2022-09-22T02:23:02.652Z,10.60
2022-09-22T02:24:02.643Z,9.50
2022-09-22T02:25:02.625Z,10.60
2022-09-22T02:26:02.624Z,10.00
2022-09-22T02:27:02.593Z,10.00
2022-09-22T02:28:02.584Z,10.00
2022-09-22T02:29:02.573Z,10.00
2022-09-22T02:30:02.556Z,10.30
2022-09-22T02:31:19.546Z,10.50
2022-09-22T02:32:03.558Z,9.90
2022-09-22T02:33:02.516Z,9.80
2022-09-22T02:34:02.505Z,10.50
2022-09-22T02:35:02.485Z,11.40
2022-09-22T02:36:02.514Z,10.50
2022-09-22T02:37:02.469Z,9.90
2022-09-22T02:38:02.445Z,10.00
2022-09-22T02:39:02.433Z,9.80
2022-09-22T02:40:02.463Z,9.80
2022-09-22T02:41:02.416Z,11.00
2022-09-22T02:42:02.387Z,9.60
2022-09-22T02:43:02.385Z,10.10
2022-09-22T02:44:02.367Z,10.50
2022-09-22T02:45:02.358Z,10.50
2022-09-22T02:46:02.470Z,11.40
2022-09-22T02:47:02.325Z,10.10
2022-09-22T02:48:02.308Z,10.60
2022-09-22T02:49:02.298Z,10.80
2022-09-22T02:50:02.278Z,10.20
2022-09-22T02:51:02.281Z,9.90
2022-09-22T02:52:02.259Z,9.50
2022-09-22T02:53:02.239Z,10.20
2022-09-22T02:54:02.227Z,10.80
2022-09-22T02:55:03.177Z,10.70
2022-09-22T02:56:02.202Z,11.60
2022-09-22T02:57:02.196Z,10.20
2022-09-22T02:58:02.173Z,10.40
2022-09-22T02:59:02.163Z,10.30
2022-09-22T03:00:02.190Z,10.40
2022-09-22T03:01:02.138Z,11.40
2022-09-22T03:02:02.120Z,11.00
2022-09-22T03:03:02.112Z,10.90
2022-09-22T03:04:02.092Z,10.50
2022-09-22T03:05:02.174Z,11.00
2022-09-22T03:06:02.062Z,10.40
2022-09-22T03:07:02.052Z,10.90
2022-09-22T03:08:02.033Z,10.90
2022-09-22T03:09:02.032Z,10.10
2022-09-22T03:10:02.023Z,11.80
2022-09-22T03:11:02.001Z,11.20
2022-09-22T03:12:01.985Z,11.10
2022-09-22T03:13:15.946Z,10.10
2022-09-22T03:14:02.953Z,10.60
2022-09-22T03:15:01.953Z,11.10
2022-09-22T03:16:01.958Z,10.80
2022-09-22T03:17:01.915Z,11.00
2022-09-22T03:18:01.906Z,10.30
2022-09-22T03:19:01.895Z,10.70
2022-09-22T03:20:01.883Z,11.60
2022-09-22T03:21:01.862Z,11.30
2022-09-22T03:22:01.845Z,10.40
2022-09-22T03:23:01.835Z,10.10
2022-09-22T03:24:01.816Z,10.90
2022-09-22T03:25:01.816Z,11.00
2022-09-22T03:26:01.797Z,10.80
2022-09-22T03:27:01.778Z,10.80
2022-09-22T03:28:01.766Z,11.30
2022-09-22T03:29:01.757Z,11.60
2022-09-22T03:30:01.748Z,12.40
2022-09-22T03:31:01.767Z,11.90
2022-09-22T03:32:01.707Z,11.70
2022-09-22T03:33:01.698Z,10.60
2022-09-22T03:34:01.685Z,12.00
2022-09-22T03:35:01.678Z,11.20
2022-09-22T03:36:01.659Z,10.10
2022-09-22T03:37:01.649Z,11.30
2022-09-22T03:38:01.629Z,11.40
2022-09-22T03:39:01.620Z,11.50
2022-09-22T03:40:01.667Z,10.90
2022-09-22T03:41:01.590Z,11.40
2022-09-22T03:42:01.581Z,11.50
2022-09-22T03:43:01.570Z,10.70
2022-09-22T03:44:01.554Z,11.30
2022-09-22T03:45:01.541Z,11.00
2022-09-22T03:46:01.600Z,10.60
2022-09-22T03:47:01.511Z,10.20
2022-09-22T03:48:01.493Z,11.00
2022-09-22T03:49:01.495Z,11.20
2022-09-22T03:50:01.462Z,11.40
2022-09-22T03:51:01.462Z,10.50
2022-09-22T03:52:01.441Z,10.60
2022-09-22T03:53:01.422Z,10.60
2022-09-22T03:54:01.434Z,10.80
2022-09-22T03:55:01.392Z,12.00
2022-09-22T03:56:01.393Z,10.90
2022-09-22T03:57:01.371Z,11.10
2022-09-22T03:58:01.355Z,10.10
2022-09-22T03:59:01.353Z,10.60
2022-09-22T04:00:01.334Z,11.10
2022-09-22T04:01:02.337Z,10.50
2022-09-22T04:02:01.434Z,10.80
2022-09-22T04:03:01.292Z,10.70
2022-09-22T04:04:01.287Z,10.60
2022-09-22T04:05:01.257Z,10.60
2022-09-22T04:06:01.245Z,10.50
2022-09-22T04:07:06.702Z,10.60
2022-09-22T04:08:02.225Z,10.60
2022-09-22T04:09:01.215Z,10.80
2022-09-22T04:10:01.195Z,10.30
2022-09-22T04:11:02.127Z,10.00
2022-09-22T04:12:01.169Z,10.40
2022-09-22T04:13:01.147Z,9.70
2022-09-22T04:14:01.147Z,9.70
2022-09-22T04:15:01.127Z,10.20
2022-09-22T04:16:01.118Z,10.00
2022-09-22T04:17:01.178Z,10.50
2022-09-22T04:18:01.087Z,11.00
2022-09-22T04:19:01.077Z,11.30
2022-09-22T04:20:01.058Z,11.50
2022-09-22T04:21:01.050Z,10.90
2022-09-22T04:22:01.029Z,10.50
2022-09-22T04:23:01.018Z,11.20
2022-09-22T04:24:01.060Z,11.00
2022-09-22T04:25:00.989Z,12.10
2022-09-22T04:26:00.980Z,10.80
2022-09-22T04:27:19.916Z,10.40
2022-09-22T04:28:05.435Z,10.80
2022-09-22T04:29:00.940Z,10.30
2022-09-22T04:30:00.923Z,10.90
2022-09-22T04:31:00.917Z,11.60
2022-09-22T04:32:00.891Z,12.00
2022-09-22T04:33:00.880Z,10.80
2022-09-22T04:34:04.262Z,10.90
2022-09-22T04:35:01.848Z,10.20
2022-09-22T04:36:00.841Z,11.40
2022-09-22T04:37:00.823Z,10.30
2022-09-22T04:38:00.821Z,10.70
2022-09-22T04:39:00.792Z,10.20
2022-09-22T04:40:00.851Z,11.00
2022-09-22T04:41:00.771Z,11.00
2022-09-22T04:42:00.753Z,10.60
2022-09-22T04:43:00.752Z,10.70
2022-09-22T04:44:00.733Z,11.70
2022-09-22T04:45:00.716Z,11.40
2022-09-22T04:46:00.731Z,10.10
2022-09-22T04:47:00.683Z,11.60
2022-09-22T04:48:00.683Z,11.70
2022-09-22T04:49:00.664Z,11.00
2022-09-22T04:50:00.651Z,10.70
2022-09-22T04:51:00.634Z,11.00
2022-09-22T04:52:00.624Z,11.90
2022-09-22T04:53:00.616Z,11.10
2022-09-22T04:54:00.647Z,11.60
2022-09-22T04:55:00.579Z,11.90
2022-09-22T04:56:00.575Z,11.40
2022-09-22T04:57:00.547Z,11.20
2022-09-22T04:58:00.545Z,10.50
2022-09-22T04:59:00.526Z,11.20
2022-09-22T05:00:00.515Z,11.20
2022-09-22T05:01:00.531Z,10.10
2022-09-22T05:02:01.446Z,11.10
2022-09-22T05:03:01.483Z,11.30
2022-09-22T05:04:00.457Z,10.90
2022-09-22T05:05:00.436Z,11.20
2022-09-22T05:06:00.437Z,11.10
2022-09-22T05:07:00.418Z,11.20
2022-09-22T05:08:00.409Z,12.80
2022-09-22T05:09:00.433Z,10.90
2022-09-22T05:10:00.375Z,12.10
2022-09-22T05:11:00.361Z,11.60
2022-09-22T05:12:00.349Z,11.30
2022-09-22T05:13:00.338Z,12.10
2022-09-22T05:14:00.335Z,11.70
2022-09-22T05:15:00.299Z,12.10
2022-09-22T05:16:00.311Z,11.90
2022-09-22T05:17:00.279Z,12.00
2022-09-22T05:18:00.278Z,12.20
2022-09-22T05:19:00.251Z,12.80
2022-09-22T05:20:00.249Z,11.30
2022-09-22T05:21:00.230Z,12.00
2022-09-22T05:22:01.168Z,11.70
2022-09-22T05:23:00.206Z,11.40
2022-09-22T05:24:00.247Z,12.00
2022-09-22T05:25:00.171Z,11.20
2022-09-22T05:26:00.275Z,11.80
2022-09-22T05:27:01.091Z,12.10
2022-09-22T05:28:00.141Z,12.10
2022-09-22T05:29:00.122Z,11.50
2022-09-22T05:30:00.119Z,11.30
2022-09-22T05:31:00.095Z,11.50
2022-09-22T05:32:00.178Z,11.40
2022-09-22T05:33:00.077Z,11.40
2022-09-22T05:34:00.076Z,11.20
2022-09-22T05:35:00.991Z,11.80
2022-09-22T05:36:00.025Z,11.30
2022-09-22T05:37:00.963Z,12.00
2022-09-22T05:38:00.005Z,12.20
2022-09-22T05:39:00.013Z,12.00
2022-09-22T05:39:59.970Z,12.10
2022-09-22T05:40:59.954Z,11.80
2022-09-22T05:41:59.941Z,12.10
2022-09-22T05:42:59.934Z,12.60
2022-09-22T05:43:59.915Z,12.90
2022-09-22T05:44:59.895Z,11.20
2022-09-22T05:45:59.934Z,11.10
2022-09-22T05:47:00.825Z,11.70
2022-09-22T05:47:59.876Z,12.00
2022-09-22T05:48:59.847Z,11.40
2022-09-22T05:49:59.837Z,11.60
2022-09-22T05:50:59.816Z,11.30
2022-09-22T05:52:00.766Z,11.10
2022-09-22T05:52:59.797Z,10.80
2022-09-22T05:53:59.797Z,11.10
2022-09-22T05:54:59.757Z,11.10
2022-09-22T05:55:59.768Z,10.80
2022-09-22T05:56:59.734Z,11.60
2022-09-22T05:57:59.727Z,12.30
2022-09-22T05:58:59.708Z,12.10
2022-09-22T05:59:59.697Z,12.30
2022-09-22T06:00:59.711Z,11.50
2022-09-22T06:02:00.218Z,12.20
2022-09-22T06:02:59.724Z,11.10
2022-09-22T06:03:59.639Z,10.90
2022-09-22T06:04:59.629Z,11.60
2022-09-22T06:05:59.616Z,12.20
2022-09-22T06:06:59.602Z,12.50
2022-09-22T06:07:59.605Z,12.50
2022-09-22T06:08:59.604Z,11.70
2022-09-22T06:09:59.563Z,12.30
2022-09-22T06:10:59.543Z,12.20
2022-09-22T06:11:59.542Z,12.10
2022-09-22T06:12:59.532Z,12.70
2022-09-22T06:13:59.523Z,13.60
2022-09-22T06:14:59.494Z,12.20
2022-09-22T06:15:59.524Z,12.50
2022-09-22T06:16:59.462Z,12.20
2022-09-22T06:17:59.462Z,12.20
2022-09-22T06:18:59.442Z,11.90
2022-09-22T06:19:59.449Z,11.90
2022-09-22T06:20:59.412Z,11.60
2022-09-22T06:21:59.402Z,12.80
2022-09-22T06:23:00.333Z,12.50
2022-09-22T06:23:59.412Z,12.60
2022-09-22T06:24:59.353Z,11.60
2022-09-22T06:25:59.340Z,12.10
2022-09-22T06:26:59.324Z,12.80
2022-09-22T06:27:59.324Z,13.00
2022-09-22T06:28:59.304Z,12.30
2022-09-22T06:29:59.284Z,13.30
2022-09-22T06:30:59.274Z,12.80
2022-09-22T06:31:59.350Z,13.40
2022-09-22T06:32:59.255Z,12.70
2022-09-22T06:33:59.245Z,14.20
2022-09-22T06:34:59.223Z,14.10
2022-09-22T06:35:59.206Z,13.50
2022-09-22T06:36:59.196Z,14.30
2022-09-22T06:37:59.195Z,12.90
2022-09-22T06:38:59.165Z,13.40
2022-09-22T06:39:59.156Z,12.60
2022-09-22T06:40:59.212Z,13.00
2022-09-22T06:41:59.127Z,13.40
2022-09-22T06:42:59.117Z,13.60
2022-09-22T06:43:59.104Z,15.60
2022-09-22T06:44:59.086Z,15.60
2022-09-22T06:45:59.130Z,16.10
2022-09-22T06:46:59.065Z,16.70
2022-09-22T06:47:59.048Z,16.20
2022-09-22T06:48:59.028Z,15.20
2022-09-22T06:49:59.018Z,14.80
2022-09-22T06:50:58.999Z,15.00
2022-09-22T06:51:58.998Z,15.60
2022-09-22T06:52:58.974Z,16.10
2022-09-22T06:53:59.010Z,15.60
2022-09-22T06:54:58.948Z,15.70
2022-09-22T06:55:58.940Z,16.70
2022-09-22T06:56:58.925Z,16.50
2022-09-22T06:57:58.912Z,16.50
2022-09-22T06:59:09.909Z,15.50
2022-09-22T06:59:59.881Z,14.90
2022-09-22T07:00:58.966Z,15.20
2022-09-22T07:01:58.953Z,15.10
2022-09-22T07:02:58.842Z,15.00
2022-09-22T07:03:58.832Z,15.00
2022-09-22T07:04:58.831Z,14.70
2022-09-22T07:05:58.803Z,15.50
2022-09-22T07:06:58.793Z,15.50
2022-09-22T07:07:58.773Z,15.10
2022-09-22T07:08:58.771Z,14.70
2022-09-22T07:09:58.757Z,14.20
2022-09-22T07:10:59.681Z,16.50
2022-09-22T07:11:58.723Z,15.40
2022-09-22T07:12:58.703Z,13.50
2022-09-22T07:13:58.694Z,14.70
2022-09-22T07:14:58.674Z,15.30
2022-09-22T07:15:58.687Z,14.60
2022-09-22T07:16:58.654Z,14.40
2022-09-22T07:17:58.644Z,14.00
2022-09-22T07:18:58.622Z,13.80
2022-09-22T07:19:58.604Z,12.80
2022-09-22T07:20:58.595Z,14.00
2022-09-22T07:21:58.595Z,14.40
2022-09-22T07:22:58.561Z,14.00
2022-09-22T07:23:58.555Z,13.80
2022-09-22T07:24:58.536Z,14.20
2022-09-22T07:25:58.526Z,14.50
2022-09-22T07:26:58.517Z,14.70
2022-09-22T07:27:58.496Z,14.80
2022-09-22T07:28:58.487Z,15.50
2022-09-22T07:29:58.474Z,13.60
2022-09-22T07:30:58.464Z,15.20
2022-09-22T07:31:58.554Z,14.30
2022-09-22T07:32:58.428Z,13.90
2022-09-22T07:33:59.220Z,14.20
2022-09-22T07:34:58.407Z,14.30
2022-09-22T07:35:58.388Z,13.50
2022-09-22T07:36:58.390Z,14.90
2022-09-22T07:37:58.368Z,14.70
2022-09-22T07:38:58.348Z,14.30
2022-09-22T07:39:58.340Z,14.80
2022-09-22T07:40:58.320Z,13.40
2022-09-22T07:41:58.319Z,13.80
2022-09-22T07:42:58.289Z,13.70
2022-09-22T07:43:58.287Z,13.40
2022-09-22T07:44:58.269Z,12.90
2022-09-22T07:45:58.252Z,12.70
2022-09-22T07:46:58.314Z,14.30
2022-09-22T07:47:58.231Z,13.50
2022-09-22T07:48:58.212Z,14.50
2022-09-22T07:49:58.202Z,13.70
2022-09-22T07:50:58.196Z,15.10
2022-09-22T07:51:58.183Z,13.80
2022-09-22T07:52:58.161Z,14.20
2022-09-22T07:53:58.142Z,14.40
2022-09-22T07:54:58.132Z,13.90
2022-09-22T07:55:58.132Z,13.30
2022-09-22T07:56:58.389Z,12.70
2022-09-22T07:57:58.094Z,12.90
2022-09-22T07:58:58.128Z,13.70
2022-09-22T07:59:58.085Z,16.10
2022-09-22T08:00:58.132Z,15.50
2022-09-22T08:01:58.087Z,13.40
2022-09-22T08:02:58.021Z,12.30
2022-09-22T08:03:58.021Z,12.60
2022-09-22T08:04:57.996Z,11.70
2022-09-22T08:06:00.397Z,11.90
2022-09-22T08:06:58.975Z,11.70
2022-09-22T08:07:57.961Z,11.30
2022-09-22T08:08:57.993Z,12.80
2022-09-22T08:09:57.927Z,12.10
2022-09-22T08:10:57.913Z,10.50
2022-09-22T08:11:57.906Z,10.50
2022-09-22T08:12:57.900Z,9.90
2022-09-22T08:13:57.870Z,11.00
2022-09-22T08:14:57.859Z,11.10
2022-09-22T08:15:57.923Z,12.10
2022-09-22T08:16:57.847Z,10.80
2022-09-22T08:17:57.818Z,10.60
2022-09-22T08:18:57.810Z,11.20
2022-09-22T08:19:57.789Z,10.40
2022-09-22T08:20:57.789Z,11.10
2022-09-22T08:21:57.771Z,10.30
2022-09-22T08:22:57.759Z,9.70
2022-09-22T08:23:57.739Z,9.40
2022-09-22T08:24:57.726Z,9.50
2022-09-22T08:25:57.719Z,9.20
2022-09-22T08:26:57.701Z,9.50
2022-09-22T08:27:57.680Z,9.20
2022-09-22T08:28:57.681Z,9.60
2022-09-22T08:29:57.664Z,9.70
2022-09-22T08:30:57.652Z,9.70
2022-09-22T08:31:57.684Z,9.30
2022-09-22T08:32:57.622Z,9.60
2022-09-22T08:33:57.608Z,9.60
2022-09-22T08:34:57.602Z,9.70
2022-09-22T08:35:57.582Z,10.50
2022-09-22T08:36:57.562Z,10.60
2022-09-22T08:37:57.549Z,9.60
2022-09-22T08:38:57.610Z,10.60
2022-09-22T08:39:57.523Z,9.60
2022-09-22T08:40:57.523Z,9.70
2022-09-22T08:41:57.523Z,9.90
2022-09-22T08:42:57.494Z,9.60
2022-09-22T08:43:57.484Z,9.40
2022-09-22T08:44:57.474Z,9.80
2022-09-22T08:45:57.455Z,9.50
2022-09-22T08:46:57.474Z,9.50
2022-09-22T08:47:57.423Z,10.60
2022-09-22T08:48:58.366Z,8.80
2022-09-22T08:49:57.394Z,9.60
2022-09-22T08:50:57.396Z,9.10
2022-09-22T08:51:57.366Z,9.50
2022-09-22T08:52:57.356Z,10.00
2022-09-22T08:54:02.464Z,9.00
2022-09-22T08:54:58.336Z,9.90
2022-09-22T08:55:57.324Z,10.00
2022-09-22T08:56:57.308Z,9.80
2022-09-22T08:57:57.292Z,10.00
2022-09-22T08:58:57.285Z,9.40
2022-09-22T08:59:57.269Z,8.60
2022-09-22T09:00:57.259Z,8.50
2022-09-22T09:01:57.287Z,9.20
2022-09-22T09:02:57.251Z,8.80
2022-09-22T09:03:57.271Z,8.30
2022-09-22T09:04:57.191Z,8.70
2022-09-22T09:05:57.190Z,8.60
2022-09-22T09:06:57.170Z,8.20
2022-09-22T09:07:57.151Z,8.00
2022-09-22T09:09:01.305Z,8.00
2022-09-22T09:09:58.123Z,8.10
2022-09-22T09:10:57.122Z,8.50
2022-09-22T09:11:57.233Z,8.10
2022-09-22T09:12:57.091Z,8.30
2022-09-22T09:13:57.120Z,8.00
2022-09-22T09:14:57.063Z,8.00
2022-09-22T09:15:57.111Z,8.40
2022-09-22T09:16:57.034Z,7.70
2022-09-22T09:17:57.024Z,8.40
2022-09-22T09:18:57.003Z,8.40
2022-09-22T09:19:56.993Z,7.30
2022-09-22T09:20:56.986Z,7.80
2022-09-22T09:21:56.964Z,7.20
2022-09-22T09:22:56.955Z,7.10
2022-09-22T09:25:28.299Z,7.50
2022-09-22T09:25:57.915Z,7.90
2022-09-22T09:26:56.906Z,7.20
2022-09-22T09:27:56.885Z,7.90
2022-09-22T09:28:59.215Z,6.60
2022-09-22T09:29:57.860Z,7.70
2022-09-22T09:30:56.918Z,7.30
2022-09-22T09:31:56.834Z,7.20
2022-09-22T09:32:56.833Z,7.10
2022-09-22T09:33:56.807Z,7.00
2022-09-22T09:34:56.808Z,7.60
2022-09-22T09:35:56.791Z,7.00
2022-09-22T09:36:56.769Z,6.60
2022-09-22T09:37:56.759Z,6.70
2022-09-22T09:38:56.835Z,6.70
2022-09-22T09:39:56.740Z,7.20
2022-09-22T09:40:56.715Z,7.70
2022-09-22T09:41:56.700Z,7.20
2022-09-22T09:42:56.694Z,6.90
2022-09-22T09:43:56.670Z,7.10
2022-09-22T09:44:56.676Z,7.30
2022-09-22T09:45:56.652Z,6.80
2022-09-22T09:46:56.638Z,6.70
2022-09-22T09:47:59.666Z,6.20
2022-09-22T09:48:56.612Z,6.40
2022-09-22T09:49:56.604Z,6.00
2022-09-22T09:50:56.582Z,5.40
2022-09-22T09:51:56.573Z,6.20
2022-09-22T09:52:56.561Z,6.30
2022-09-22T09:53:56.604Z,6.40
2022-09-22T09:54:56.544Z,6.80
2022-09-22T09:55:56.514Z,6.30
2022-09-22T09:56:56.505Z,6.60
2022-09-22T09:57:56.487Z,6.30
2022-09-22T09:58:56.813Z,6.10
2022-09-22T09:59:56.475Z,5.90
2022-09-22T10:00:56.466Z,5.70
2022-09-22T10:01:56.478Z,6.20
2022-09-22T10:02:56.428Z,6.20
2022-09-22T10:03:56.468Z,5.70
2022-09-22T10:04:56.406Z,5.80
2022-09-22T10:05:56.388Z,5.80
2022-09-22T10:07:01.474Z,5.90
2022-09-22T10:07:57.357Z,5.40
2022-09-22T10:08:56.348Z,5.00
2022-09-22T10:09:56.354Z,5.60
2022-09-22T10:10:56.330Z,5.20
2022-09-22T10:11:56.310Z,5.40
2022-09-22T10:12:56.299Z,5.90
2022-09-22T10:13:56.296Z,5.60
2022-09-22T10:14:56.280Z,4.20
2022-09-22T10:15:56.308Z,3.70
2022-09-22T10:16:56.249Z,3.90
2022-09-22T10:17:56.231Z,3.90
2022-09-22T10:18:56.221Z,4.20
2022-09-22T10:19:56.209Z,4.30
2022-09-22T10:20:56.192Z,4.40
2022-09-22T10:21:56.171Z,4.30
2022-09-22T10:22:56.164Z,4.80
2022-09-22T10:23:56.152Z,3.80
2022-09-22T10:24:56.154Z,4.50
2022-09-22T10:25:56.127Z,4.30
2022-09-22T10:26:56.138Z,4.20
2022-09-22T10:27:56.094Z,4.30
2022-09-22T10:28:56.084Z,4.40
2022-09-22T10:29:56.084Z,4.60
2022-09-22T10:30:56.097Z,3.80
2022-09-22T10:31:56.047Z,3.90
2022-09-22T10:32:56.036Z,4.40
2022-09-22T10:33:56.020Z,3.90
2022-09-22T10:34:56.016Z,4.10
2022-09-22T10:35:56.000Z,4.10
2022-09-22T10:36:55.987Z,4.00
2022-09-22T10:37:55.967Z,3.70
2022-09-22T10:38:59.599Z,3.90
2022-09-22T10:39:55.947Z,3.80
2022-09-22T10:40:55.936Z,4.10
2022-09-22T10:41:55.909Z,4.20
2022-09-22T10:42:55.900Z,4.20
2022-09-22T10:43:55.889Z,4.40
2022-09-22T10:44:55.879Z,4.40
2022-09-22T10:45:55.928Z,4.30
2022-09-22T10:46:55.850Z,4.20
2022-09-22T10:47:55.831Z,4.00
2022-09-22T10:48:55.830Z,4.10
2022-09-22T10:49:55.908Z,4.30
2022-09-22T10:50:55.791Z,3.60
2022-09-22T10:51:55.794Z,3.90
2022-09-22T10:52:55.778Z,3.50
2022-09-22T10:53:55.761Z,3.40
2022-09-22T10:54:55.748Z,3.70
2022-09-22T10:55:55.734Z,3.70
2022-09-22T10:56:55.713Z,3.50
2022-09-22T10:57:55.696Z,3.90
2022-09-22T10:58:55.695Z,2.70
2022-09-22T10:59:55.664Z,2.30
2022-09-22T11:00:55.655Z,2.40
2022-09-22T11:01:55.716Z,2.30
2022-09-22T11:02:55.649Z,1.90
2022-09-22T11:03:55.623Z,2.00
2022-09-22T11:04:55.627Z,1.80
2022-09-22T11:05:55.589Z,1.80
2022-09-22T11:06:55.577Z,1.70
2022-09-22T11:07:55.576Z,1.50
2022-09-22T11:08:55.557Z,1.60
2022-09-22T11:09:55.527Z,2.10
2022-09-22T11:10:55.518Z,2.00
2022-09-22T11:11:55.506Z,1.90
2022-09-22T11:12:55.493Z,2.00
2022-09-22T11:13:55.478Z,2.40
2022-09-22T11:14:55.469Z,2.30
2022-09-22T11:15:55.497Z,1.80
2022-09-22T11:16:55.444Z,2.10
2022-09-22T11:17:55.420Z,2.00
2022-09-22T11:18:55.420Z,2.00
2022-09-22T11:19:55.391Z,2.50
2022-09-22T11:20:55.391Z,2.20
2022-09-22T11:21:55.371Z,1.80
2022-09-22T11:22:55.353Z,2.10
2022-09-22T11:23:55.342Z,1.90
2022-09-22T11:24:55.331Z,1.90
2022-09-22T11:25:55.317Z,2.10
2022-09-22T11:26:55.308Z,2.20
2022-09-22T11:27:55.287Z,1.80
2022-09-22T11:28:57.503Z,1.90
2022-09-22T11:29:55.253Z,1.90
2022-09-22T11:30:55.291Z,2.20
2022-09-22T11:31:55.232Z,2.00
2022-09-22T11:32:55.216Z,2.00
2022-09-22T11:33:55.215Z,1.80
2022-09-22T11:34:55.196Z,2.20
2022-09-22T11:35:55.196Z,2.20
2022-09-22T11:36:55.163Z,2.30
2022-09-22T11:37:55.148Z,2.30
2022-09-22T11:38:55.147Z,2.00
2022-09-22T11:39:55.117Z,2.20
2022-09-22T11:40:55.126Z,2.30
2022-09-22T11:41:55.097Z,2.00
2022-09-22T11:42:55.088Z,1.90
2022-09-22T11:43:58.483Z,1.70
2022-09-22T11:44:55.059Z,1.60
2022-09-22T11:45:55.068Z,1.80
2022-09-22T11:46:55.037Z,1.90
2022-09-22T11:47:55.015Z,1.90
2022-09-22T11:48:55.010Z,1.60
2022-09-22T11:49:55.003Z,1.90
2022-09-22T11:50:54.980Z,1.50
2022-09-22T11:51:54.963Z,1.50
2022-09-22T11:52:58.573Z,1.60
2022-09-22T11:53:54.942Z,1.30
2022-09-22T11:55:00.536Z,1.50
2022-09-22T11:55:55.905Z,2.20
2022-09-22T11:56:54.904Z,2.00
2022-09-22T11:57:54.883Z,2.00
2022-09-22T11:58:54.875Z,1.80
2022-09-22T11:59:54.854Z,1.70
2022-09-22T12:00:54.844Z,1.60
2022-09-22T12:01:54.825Z,1.60
2022-09-22T12:02:54.956Z,1.40
2022-09-22T12:03:54.805Z,1.60
2022-09-22T12:04:54.786Z,1.40
2022-09-22T12:05:54.775Z,1.50
2022-09-22T12:06:54.766Z,1.30
2022-09-22T12:07:54.751Z,1.50
2022-09-22T12:09:54.717Z,1.30
2022-09-22T12:10:54.708Z,1.30
2022-09-22T12:11:54.698Z,1.40
2022-09-22T12:12:54.689Z,1.40
2022-09-22T12:13:54.671Z,1.50
2022-09-22T12:14:54.675Z,1.30
2022-09-22T12:15:54.710Z,1.30
2022-09-22T12:16:54.632Z,1.20
2022-09-22T12:17:54.620Z,1.10
2022-09-22T12:18:54.600Z,1.50
2022-09-22T12:19:54.620Z,1.30
2022-09-22T12:20:54.582Z,1.50
2022-09-22T12:21:54.563Z,1.50
2022-09-22T12:22:54.559Z,1.40
2022-09-22T12:23:54.533Z,1.30
2022-09-22T12:24:54.523Z,1.10
2022-09-22T12:25:54.520Z,1.40
2022-09-22T12:26:54.493Z,1.20
2022-09-22T12:27:54.491Z,1.30
2022-09-22T12:28:54.463Z,1.30
2022-09-22T12:29:54.455Z,1.10
2022-09-22T12:30:54.542Z,1.10
2022-09-22T12:31:54.427Z,1.00
2022-09-22T12:32:54.418Z,1.00
2022-09-22T12:33:54.407Z,0.80
2022-09-22T12:34:54.386Z,1.00
2022-09-22T12:35:54.376Z,1.00
2022-09-22T12:36:54.374Z,0.90
2022-09-22T12:37:54.357Z,1.00
2022-09-22T12:38:54.327Z,1.00
2022-09-22T12:39:54.328Z,0.90
2022-09-22T12:40:54.307Z,0.90
2022-09-22T12:41:54.299Z,1.10
2022-09-22T12:42:54.289Z,1.00
2022-09-22T12:43:54.279Z,1.00
2022-09-22T12:44:54.249Z,1.30
2022-09-22T12:45:54.284Z,1.30
2022-09-22T12:46:54.269Z,1.20
2022-09-22T12:47:54.231Z,1.50
2022-09-22T12:48:54.201Z,1.30
2022-09-22T12:49:54.188Z,1.30
2022-09-22T12:50:54.172Z,1.20
2022-09-22T12:51:54.162Z,1.20
2022-09-22T12:52:54.153Z,1.10
2022-09-22T12:53:54.142Z,1.20
2022-09-22T12:54:54.123Z,1.20
2022-09-22T12:55:54.113Z,1.00
2022-09-22T12:56:54.140Z,1.20
2022-09-22T12:57:54.099Z,1.20
2022-09-22T12:58:54.066Z,1.00
2022-09-22T12:59:54.055Z,1.00
2022-09-22T13:00:54.115Z,1.10
2022-09-22T13:01:54.123Z,1.10
2022-09-22T13:02:54.016Z,1.00
2022-09-22T13:03:54.006Z,1.20
2022-09-22T13:04:53.988Z,1.00
2022-09-22T13:05:53.977Z,1.10
2022-09-22T13:06:54.919Z,1.00
2022-09-22T13:07:53.957Z,1.10
2022-09-22T13:08:53.944Z,1.20
2022-09-22T13:09:53.923Z,1.20